createdAt,value
2019-05-13T00:02:34.526Z,112.47
2019-05-13T00:05:39.764Z,111.90
2019-05-13T00:08:44.923Z,111.70
2019-05-13T00:11:50.151Z,112.42
2019-05-13T00:14:55.343Z,111.80
2019-05-13T00:18:00.517Z,111.84
2019-05-13T00:21:05.702Z,112.87
2019-05-13T00:24:10.826Z,112.50
2019-05-13T00:27:16.073Z,112.13
2019-05-13T00:30:23.390Z,111.99
2019-05-13T00:33:28.039Z,112.76
2019-05-13T00:36:33.686Z,112.66
2019-05-13T00:39:39.105Z,112.95
2019-05-13T00:42:45.518Z,113.44
2019-05-13T00:45:50.717Z,112.99
2019-05-13T00:48:55.907Z,112.92
2019-05-13T00:52:01.037Z,114.01
2019-05-13T00:55:09.956Z,114.32
2019-05-13T00:58:14.354Z,114.43
2019-05-13T01:01:19.549Z,114.40
2019-05-13T01:04:24.687Z,114.34
2019-05-13T01:07:29.830Z,115.39
2019-05-13T01:10:35.096Z,115.13
2019-05-13T01:13:40.244Z,115.70
2019-05-13T01:16:45.389Z,115.97
2019-05-13T01:19:50.629Z,116.38
2019-05-13T01:22:55.705Z,116.55
2019-05-13T01:26:00.890Z,116.22
2019-05-13T01:29:06.036Z,116.31
2019-05-13T01:32:11.195Z,116.17
2019-05-13T01:35:16.359Z,117.03
2019-05-13T01:38:23.886Z,116.35
2019-05-13T01:41:28.429Z,116.62
2019-05-13T01:44:34.546Z,116.62
2019-05-13T01:47:43.735Z,116.10
2019-05-13T01:50:48.136Z,116.01
2019-05-13T01:53:53.537Z,116.39
2019-05-13T01:56:58.690Z,116.73
2019-05-13T02:00:04.813Z,116.97
2019-05-13T02:03:11.136Z,117.12
2019-05-13T02:06:16.289Z,117.21
2019-05-13T02:09:24.318Z,117.27
2019-05-13T02:12:28.925Z,117.01
2019-05-13T02:15:34.050Z,117.25
2019-05-13T02:18:40.351Z,117.71
2019-05-13T02:21:45.519Z,118.18
2019-05-13T02:24:50.745Z,117.45
2019-05-13T02:27:55.895Z,117.36
2019-05-13T02:31:01.111Z,117.24
2019-05-13T02:34:07.687Z,117.50
2019-05-13T02:37:13.914Z,117.71
2019-05-13T02:40:22.408Z,117.84
2019-05-13T02:43:26.035Z,118.01
2019-05-13T02:46:33.819Z,118.17
2019-05-13T02:49:38.064Z,118.49
2019-05-13T02:52:44.308Z,118.56
2019-05-13T02:55:52.477Z,118.13
2019-05-13T02:58:56.667Z,118.00
2019-05-13T03:02:03.634Z,118.51
2019-05-13T03:05:13.173Z,118.52
2019-05-13T03:08:34.089Z,118.87
2019-05-13T03:11:24.051Z,118.64
2019-05-13T03:14:32.319Z,118.75
2019-05-13T03:17:43.321Z,118.67
2019-05-13T03:20:48.750Z,119.00
2019-05-13T03:23:54.057Z,119.00
2019-05-13T03:27:02.268Z,119.00
2019-05-13T03:30:06.278Z,118.86
2019-05-13T03:33:18.822Z,118.98
2019-05-13T03:36:25.175Z,119.00
2019-05-13T03:39:28.037Z,119.00
2019-05-13T03:42:34.996Z,119.00
2019-05-13T03:45:43.255Z,119.00
2019-05-13T03:48:52.906Z,118.87
2019-05-13T03:51:57.881Z,118.82
2019-05-13T03:55:03.499Z,118.66
2019-05-13T03:58:08.887Z,118.12
2019-05-13T04:01:14.089Z,117.26
2019-05-13T04:04:23.017Z,116.31
2019-05-13T04:07:26.088Z,115.94
2019-05-13T04:10:33.407Z,115.20
2019-05-13T04:13:38.124Z,113.98
2019-05-13T04:16:43.903Z,109.48
2019-05-13T04:19:52.975Z,100.66
2019-05-13T04:22:57.324Z,93.99
2019-05-13T04:26:03.202Z,89.26
2019-05-13T04:29:08.751Z,86.31
2019-05-13T04:32:13.883Z,81.23
2019-05-13T04:35:19.027Z,80.50
2019-05-13T04:38:24.239Z,77.45
2019-05-13T04:41:32.958Z,76.94
2019-05-13T04:44:36.363Z,72.56
2019-05-13T04:47:43.507Z,70.62
2019-05-13T04:50:48.824Z,72.53
2019-05-13T04:53:57.235Z,67.29
2019-05-13T04:57:02.933Z,69.39
2019-05-13T05:00:08.614Z,60.35
2019-05-13T05:03:32.617Z,59.90
2019-05-13T05:06:42.138Z,60.12
2019-05-13T05:10:33.031Z,58.28
2019-05-13T05:14:02.697Z,52.90
2019-05-13T05:17:47.699Z,57.92
2019-05-13T05:21:05.830Z,49.48
2019-05-13T05:24:28.149Z,50.09
2019-05-13T05:28:11.304Z,47.55
2019-05-13T05:31:41.429Z,46.68
2019-05-13T05:35:23.643Z,51.69
2019-05-13T05:38:57.015Z,47.20
2019-05-13T05:42:03.753Z,49.67
2019-05-13T05:45:11.462Z,48.12
2019-05-13T05:48:17.939Z,49.44
2019-05-13T05:51:25.779Z,49.60
2019-05-13T05:54:33.826Z,47.74
2019-05-13T05:57:54.235Z,46.88
2019-05-13T06:01:02.590Z,44.28
2019-05-13T06:04:07.581Z,45.08
2019-05-13T06:07:14.630Z,44.85
2019-05-13T06:10:19.844Z,49.06
2019-05-13T06:13:25.136Z,43.33
2019-05-13T06:16:32.020Z,45.07
2019-05-13T06:19:38.499Z,43.94
2019-05-13T06:22:44.690Z,42.30
2019-05-13T06:26:17.565Z,46.62
2019-05-13T06:29:31.820Z,45.16
2019-05-13T06:32:36.685Z,43.47
2019-05-13T06:35:44.796Z,45.81
2019-05-13T06:38:51.363Z,45.16
2019-05-13T06:41:57.091Z,46.44
2019-05-13T06:45:02.398Z,46.09
2019-05-13T06:48:11.477Z,48.52
2019-05-13T06:51:15.818Z,50.93
2019-05-13T06:54:22.000Z,58.95
2019-05-13T06:57:27.393Z,58.82
2019-05-13T07:00:34.663Z,60.28
2019-05-13T07:03:41.840Z,61.25
2019-05-13T07:06:47.616Z,62.80
2019-05-13T07:09:52.854Z,63.03
2019-05-13T07:12:58.133Z,65.03
2019-05-13T07:16:03.270Z,66.10
2019-05-13T07:19:08.409Z,65.87
2019-05-13T07:22:13.561Z,62.36
2019-05-13T07:25:18.721Z,63.31
2019-05-13T07:28:24.047Z,65.65
2019-05-13T07:31:29.218Z,64.51
2019-05-13T07:34:34.461Z,64.90
2019-05-13T07:37:42.467Z,65.74
2019-05-13T07:40:52.676Z,63.89
2019-05-13T07:43:57.946Z,64.29
2019-05-13T07:47:03.872Z,66.30
2019-05-13T07:50:09.180Z,66.77
2019-05-13T07:53:19.160Z,64.71
2019-05-13T07:56:24.172Z,62.30
2019-05-13T07:59:31.517Z,62.91
2019-05-13T08:02:37.517Z,64.63
2019-05-13T08:05:42.631Z,64.87
2019-05-13T08:08:47.795Z,64.96
2019-05-13T08:12:05.396Z,64.87
2019-05-13T08:15:02.936Z,66.22
2019-05-13T08:18:06.919Z,61.46
2019-05-13T08:21:12.398Z,61.59
2019-05-13T08:24:17.787Z,64.71
2019-05-13T08:27:30.227Z,63.40
2019-05-13T08:30:31.874Z,60.43
2019-05-13T08:33:36.867Z,61.58
2019-05-13T08:36:42.712Z,62.16
2019-05-13T08:39:48.210Z,63.72
2019-05-13T08:42:53.423Z,64.42
2019-05-13T08:46:01.905Z,59.72
2019-05-13T08:49:06.784Z,57.14
2019-05-13T08:52:12.293Z,59.55
2019-05-13T08:55:18.442Z,61.94
2019-05-13T08:58:28.042Z,57.00
2019-05-13T09:01:33.530Z,56.70
2019-05-13T09:04:42.004Z,58.78
2019-05-13T09:07:48.647Z,59.70
2019-05-13T09:10:56.822Z,62.53
2019-05-13T09:14:02.336Z,57.25
2019-05-13T09:17:08.743Z,57.51
2019-05-13T09:20:14.183Z,58.89
2019-05-13T09:23:22.032Z,60.40
2019-05-13T09:26:26.287Z,61.65
2019-05-13T09:29:32.367Z,57.81
2019-05-13T09:32:37.737Z,52.53
2019-05-13T09:35:42.941Z,52.81
2019-05-13T09:38:48.695Z,50.51
2019-05-13T09:41:53.842Z,51.51
2019-05-13T09:44:58.966Z,52.49
2019-05-13T09:48:05.157Z,51.90
2019-05-13T09:51:12.427Z,51.72
2019-05-13T09:54:17.167Z,47.17
2019-05-13T09:57:22.253Z,46.88
2019-05-13T10:00:27.426Z,47.75
2019-05-13T10:03:33.226Z,46.13
2019-05-13T10:06:38.607Z,47.40
2019-05-13T10:09:48.098Z,50.87
2019-05-13T10:13:07.418Z,46.41
2019-05-13T10:15:59.128Z,49.33
2019-05-13T10:19:04.257Z,46.14
2019-05-13T10:22:11.792Z,47.29
2019-05-13T10:25:19.206Z,42.34
2019-05-13T10:28:34.306Z,43.33
2019-05-13T10:31:41.815Z,41.75
2019-05-13T10:34:47.162Z,45.08
2019-05-13T10:37:52.452Z,44.04
2019-05-13T10:41:02.858Z,45.99
2019-05-13T10:44:06.902Z,41.43
2019-05-13T10:47:12.254Z,40.36
2019-05-13T10:50:17.521Z,42.98
2019-05-13T10:53:22.766Z,38.99
2019-05-13T10:56:32.809Z,42.18
2019-05-13T10:59:37.567Z,41.69
2019-05-13T11:02:42.779Z,41.35
2019-05-13T11:05:52.594Z,41.25
2019-05-13T11:08:58.401Z,39.86
2019-05-13T11:12:04.519Z,39.28
2019-05-13T11:15:11.472Z,39.02
2019-05-13T11:18:19.829Z,40.00
2019-05-13T11:21:25.908Z,38.98
2019-05-13T11:24:32.487Z,40.54
2019-05-13T11:27:38.000Z,39.37
2019-05-13T11:30:43.601Z,36.56
2019-05-13T11:33:51.792Z,37.40
2019-05-13T11:36:55.934Z,38.22
2019-05-13T11:40:02.774Z,38.06
2019-05-13T11:43:07.969Z,38.73
2019-05-13T11:46:13.169Z,40.28
2019-05-13T11:49:18.404Z,39.02
2019-05-13T11:52:23.718Z,38.75
2019-05-13T11:55:29.069Z,38.88
2019-05-13T11:58:36.006Z,38.41
2019-05-13T12:01:42.706Z,38.97
2019-05-13T12:04:48.269Z,39.66
2019-05-13T12:07:53.664Z,40.38
2019-05-13T12:10:58.847Z,40.05
2019-05-13T12:14:04.749Z,40.79
2019-05-13T12:17:13.914Z,39.28
2019-05-13T12:20:16.922Z,41.34
2019-05-13T12:23:22.243Z,41.32
2019-05-13T12:26:27.452Z,39.76
2019-05-13T12:29:32.677Z,36.74
2019-05-13T12:32:37.918Z,37.25
2019-05-13T12:35:43.060Z,35.68
2019-05-13T12:38:48.239Z,36.31
2019-05-13T12:41:54.051Z,37.26
2019-05-13T12:45:08.406Z,36.58
2019-05-13T12:48:06.430Z,36.42
2019-05-13T12:51:13.435Z,38.88
2019-05-13T12:54:18.933Z,38.09
2019-05-13T12:57:24.178Z,35.59
2019-05-13T13:00:30.216Z,33.26
2019-05-13T13:03:36.718Z,33.55
2019-05-13T13:06:45.958Z,34.61
2019-05-13T13:09:53.631Z,33.87
2019-05-13T13:12:58.062Z,33.34
2019-05-13T13:16:03.813Z,32.69
2019-05-13T13:19:09.082Z,29.18
2019-05-13T13:22:14.313Z,32.65
2019-05-13T13:25:23.786Z,31.94
2019-05-13T13:28:29.042Z,34.67
2019-05-13T13:31:34.279Z,36.55
2019-05-13T13:34:43.622Z,36.10
2019-05-13T13:37:46.598Z,36.81
2019-05-13T13:40:53.746Z,35.99
2019-05-13T13:44:04.706Z,36.74
2019-05-13T13:47:06.175Z,35.03
2019-05-13T13:50:11.997Z,39.80
2019-05-13T13:53:17.158Z,41.53
2019-05-13T13:56:25.314Z,41.18
2019-05-13T13:59:35.591Z,40.30
2019-05-13T14:02:37.147Z,39.20
2019-05-13T14:05:45.889Z,41.12
2019-05-13T14:08:51.951Z,38.44
2019-05-13T14:11:57.378Z,38.34
2019-05-13T14:15:02.490Z,39.22
2019-05-13T14:18:07.885Z,40.43
2019-05-13T14:21:13.088Z,39.49
2019-05-13T14:24:18.400Z,41.09
2019-05-13T14:27:23.631Z,40.07
2019-05-13T14:30:30.795Z,39.92
2019-05-13T14:33:35.841Z,39.31
2019-05-13T14:36:42.118Z,40.93
2019-05-13T14:39:47.383Z,41.32
2019-05-13T14:42:53.533Z,37.37
2019-05-13T14:46:02.345Z,37.76
2019-05-13T14:49:07.949Z,37.92
2019-05-13T14:52:13.118Z,38.36
2019-05-13T14:55:18.374Z,39.10
2019-05-13T14:58:23.514Z,35.15
2019-05-13T15:01:28.718Z,38.25
2019-05-13T15:04:33.989Z,36.61
2019-05-13T15:07:42.178Z,37.06
2019-05-13T15:10:47.202Z,34.52
2019-05-13T15:13:52.419Z,36.54
2019-05-13T15:17:03.027Z,33.67
2019-05-13T15:20:06.359Z,34.33
2019-05-13T15:23:12.104Z,35.88
2019-05-13T15:26:17.473Z,31.82
2019-05-13T15:29:22.636Z,31.21
2019-05-13T15:32:32.767Z,33.58
2019-05-13T15:35:35.503Z,33.86
2019-05-13T15:38:41.408Z,38.19
2019-05-13T15:41:46.759Z,37.41
2019-05-13T15:44:53.118Z,40.44
2019-05-13T15:47:58.550Z,38.31
2019-05-13T15:51:04.796Z,40.18
2019-05-13T15:54:14.984Z,39.56
2019-05-13T15:57:16.811Z,35.49
2019-05-13T16:00:22.124Z,37.90
2019-05-13T16:03:27.281Z,39.80
2019-05-13T16:06:32.401Z,38.21
2019-05-13T16:09:37.569Z,36.88
2019-05-13T16:12:42.695Z,36.14
2019-05-13T16:15:47.838Z,37.09
2019-05-13T16:18:53.212Z,36.78
2019-05-13T16:22:01.329Z,37.83
2019-05-13T16:25:09.429Z,35.93
2019-05-13T16:28:14.629Z,39.19
2019-05-13T16:31:19.851Z,41.67
2019-05-13T16:34:25.028Z,41.77
2019-05-13T16:37:31.402Z,41.44
2019-05-13T16:40:36.980Z,39.19
2019-05-13T16:43:42.769Z,39.83
2019-05-13T16:46:48.116Z,41.36
2019-05-13T16:49:53.549Z,42.32
2019-05-13T16:52:58.750Z,41.51
2019-05-13T16:56:03.931Z,41.73
2019-05-13T16:59:09.110Z,42.97
2019-05-13T17:02:14.260Z,43.32
2019-05-13T17:05:19.486Z,43.05
2019-05-13T17:08:24.636Z,41.50
2019-05-13T17:11:32.007Z,41.71
2019-05-13T17:14:36.646Z,42.63
2019-05-13T17:17:48.647Z,39.60
2019-05-13T17:20:53.904Z,38.96
2019-05-13T17:24:01.367Z,38.99
2019-05-13T17:27:05.966Z,39.90
2019-05-13T17:30:11.728Z,41.61
2019-05-13T17:33:16.976Z,43.88
2019-05-13T17:36:22.144Z,43.19
2019-05-13T17:39:27.374Z,42.78
2019-05-13T17:42:32.551Z,41.99
2019-05-13T17:45:37.784Z,41.68
2019-05-13T17:48:42.925Z,41.57
2019-05-13T17:51:51.534Z,43.94
2019-05-13T17:54:56.134Z,44.35
2019-05-13T17:58:01.537Z,45.40
2019-05-13T18:01:06.802Z,45.66
2019-05-13T18:04:14.222Z,46.14
2019-05-13T18:07:21.420Z,47.07
2019-05-13T18:10:26.686Z,48.68
2019-05-13T18:13:32.176Z,49.49
2019-05-13T18:16:37.419Z,49.93
2019-05-13T18:19:42.628Z,50.78
2019-05-13T18:22:47.836Z,52.42
2019-05-13T18:25:52.971Z,52.83
2019-05-13T18:28:58.100Z,53.10
2019-05-13T18:32:03.236Z,53.54
2019-05-13T18:35:08.481Z,53.52
2019-05-13T18:38:13.723Z,53.36
2019-05-13T18:41:21.192Z,52.83
2019-05-13T18:44:25.844Z,54.04
2019-05-13T18:47:31.610Z,55.90
2019-05-13T18:50:41.939Z,55.51
2019-05-13T18:53:46.923Z,56.35
2019-05-13T18:56:53.772Z,57.30
2019-05-13T18:59:59.008Z,57.93
2019-05-13T19:03:04.162Z,58.46
2019-05-13T19:06:11.459Z,58.43
2019-05-13T19:09:16.135Z,58.75
2019-05-13T19:12:22.008Z,60.12
2019-05-13T19:15:27.426Z,61.17
2019-05-13T19:18:48.668Z,59.94
2019-05-13T19:21:57.572Z,60.59
2019-05-13T19:25:02.772Z,61.63
2019-05-13T19:28:08.402Z,62.25
2019-05-13T19:31:13.641Z,63.28
2019-05-13T19:34:18.825Z,64.95
2019-05-13T19:37:23.996Z,65.43
2019-05-13T19:40:31.225Z,67.04
2019-05-13T19:43:36.666Z,66.86
2019-05-13T19:46:42.862Z,67.85
2019-05-13T19:49:48.204Z,68.24
2019-05-13T19:52:53.576Z,69.31
2019-05-13T19:56:01.464Z,69.68
2019-05-13T19:59:07.100Z,71.40
2019-05-13T20:02:12.483Z,70.63
2019-05-13T20:05:20.517Z,71.81
2019-05-13T20:08:25.816Z,71.80
2019-05-13T20:11:31.158Z,72.24
2019-05-13T20:14:36.283Z,73.56
2019-05-13T20:17:41.820Z,74.14
2019-05-13T20:20:47.179Z,75.11
2019-05-13T20:23:53.925Z,74.65
2019-05-13T20:27:02.245Z,75.49
2019-05-13T20:30:08.675Z,75.68
2019-05-13T20:33:13.828Z,77.00
2019-05-13T20:36:18.975Z,77.80
2019-05-13T20:39:25.301Z,78.74
2019-05-13T20:42:30.526Z,79.09
2019-05-13T20:45:35.841Z,80.64
2019-05-13T20:48:41.244Z,81.31
2019-05-13T20:51:46.647Z,83.62
2019-05-13T20:54:52.005Z,84.08
2019-05-13T20:57:57.247Z,85.48
2019-05-13T21:01:02.658Z,86.93
2019-05-13T21:04:08.961Z,88.78
2019-05-13T21:07:14.222Z,90.07
2019-05-13T21:10:21.198Z,90.22
2019-05-13T21:13:33.623Z,90.67
2019-05-13T21:16:37.077Z,91.80
2019-05-13T21:19:42.862Z,91.29
2019-05-13T21:22:48.280Z,91.07
2019-05-13T21:25:53.457Z,94.15
2019-05-13T21:28:58.620Z,94.12
2019-05-13T21:32:03.841Z,94.82
2019-05-13T21:35:11.620Z,97.78
2019-05-13T21:38:16.147Z,96.92
2019-05-13T21:41:21.347Z,98.17
2019-05-13T21:44:26.557Z,98.08
2019-05-13T21:47:31.771Z,98.81
2019-05-13T21:50:37.606Z,99.29
2019-05-13T21:53:42.957Z,100.54
2019-05-13T21:56:48.206Z,99.49
2019-05-13T21:59:53.592Z,99.60
2019-05-13T22:02:58.733Z,100.59
2019-05-13T22:06:04.047Z,101.43
2019-05-13T22:09:11.713Z,102.05
2019-05-13T22:12:17.247Z,102.37
2019-05-13T22:15:22.366Z,102.28
2019-05-13T22:18:27.719Z,102.94
2019-05-13T22:21:34.062Z,103.81
2019-05-13T22:24:41.614Z,104.11
2019-05-13T22:27:46.141Z,104.90
2019-05-13T22:30:51.798Z,104.03
2019-05-13T22:33:57.074Z,104.61
2019-05-13T22:37:02.629Z,104.43
2019-05-13T22:40:11.082Z,105.00
2019-05-13T22:43:17.453Z,105.80
2019-05-13T22:46:24.954Z,105.90
2019-05-13T22:49:31.219Z,107.12
2019-05-13T22:52:36.502Z,107.80
2019-05-13T22:55:41.984Z,107.29
2019-05-13T22:58:47.398Z,108.06
2019-05-13T23:01:54.978Z,108.38
2019-05-13T23:05:01.732Z,109.43
2019-05-13T23:08:07.018Z,109.42
2019-05-13T23:11:12.173Z,109.00
2019-05-13T23:14:17.291Z,109.42
2019-05-13T23:17:22.444Z,109.77
2019-05-13T23:20:27.651Z,110.90
2019-05-13T23:23:32.821Z,111.34
2019-05-13T23:26:38.081Z,110.88
2019-05-13T23:29:43.226Z,110.84
2019-05-13T23:32:48.394Z,111.40
2019-05-13T23:35:53.600Z,111.62
2019-05-13T23:39:00.938Z,112.17
2019-05-13T23:42:05.778Z,112.09
2019-05-13T23:45:12.286Z,112.11
2019-05-13T23:48:17.488Z,112.43
2019-05-13T23:51:22.663Z,111.49
2019-05-13T23:54:27.822Z,111.40
2019-05-13T23:57:32.957Z,111.34
